createdAt,value
2018-05-09T00:00:55.720Z,100405.78
2018-05-09T00:01:59.057Z,100409.19
2018-05-09T00:03:02.381Z,100405.23
2018-05-09T00:04:05.726Z,100409.50
2018-05-09T00:05:09.055Z,100410.95
2018-05-09T00:06:12.361Z,100402.11
2018-05-09T00:07:15.719Z,100402.74
2018-05-09T00:08:19.026Z,100401.07
2018-05-09T00:09:22.392Z,100407.50
2018-05-09T00:10:25.740Z,100403.66
2018-05-09T00:11:29.083Z,100409.58
2018-05-09T00:12:32.444Z,100409.80
2018-05-09T00:13:35.774Z,100407.70
2018-05-09T00:14:39.095Z,100413.20
2018-05-09T00:15:42.398Z,100417.56
2018-05-09T00:16:45.706Z,100413.19
2018-05-09T00:17:49.042Z,100411.00
2018-05-09T00:18:52.376Z,100408.10
2018-05-09T00:19:55.695Z,100410.05
2018-05-09T00:20:58.997Z,100407.36
2018-05-09T00:22:02.312Z,100407.16
2018-05-09T00:23:05.654Z,100405.99
2018-05-09T00:24:09.035Z,100403.94
2018-05-09T00:25:12.342Z,100406.30
2018-05-09T00:26:15.669Z,100407.84
2018-05-09T00:27:19.014Z,100404.02
2018-05-09T00:28:22.362Z,100406.80
2018-05-09T00:29:25.692Z,100404.71
2018-05-09T00:30:29.025Z,100407.63
2018-05-09T00:31:32.336Z,100406.89
2018-05-09T00:32:35.649Z,100405.75
2018-05-09T00:33:38.998Z,100409.38
2018-05-09T00:34:42.321Z,100409.28
2018-05-09T00:35:45.642Z,100404.48
2018-05-09T00:36:49.068Z,100405.00
2018-05-09T00:37:52.373Z,100402.09
2018-05-09T00:38:55.719Z,100399.16
2018-05-09T00:39:59.190Z,100400.19
2018-05-09T00:41:02.678Z,100398.19
2018-05-09T00:42:05.989Z,100402.33
2018-05-09T00:43:09.304Z,100400.78
2018-05-09T00:44:12.642Z,100400.03
2018-05-09T00:45:15.954Z,100399.73
2018-05-09T00:46:19.255Z,100392.67
2018-05-09T00:47:22.558Z,100394.33
2018-05-09T00:48:26.614Z,100397.53
2018-05-09T00:49:29.974Z,100390.14
2018-05-09T00:50:33.291Z,100396.17
2018-05-09T00:51:36.599Z,100390.95
2018-05-09T00:52:39.919Z,100396.06
2018-05-09T00:53:43.238Z,100389.59
2018-05-09T00:54:46.578Z,100391.58
2018-05-09T00:55:49.900Z,100393.44
2018-05-09T00:56:53.225Z,100386.59
2018-05-09T00:57:56.531Z,100393.52
2018-05-09T00:58:59.843Z,100393.70
2018-05-09T01:00:03.178Z,100392.05
2018-05-09T01:01:06.980Z,100395.57
2018-05-09T01:02:10.394Z,100396.59
2018-05-09T01:03:13.753Z,100392.31
2018-05-09T01:04:17.053Z,100391.27
2018-05-09T01:05:20.381Z,100390.55
2018-05-09T01:06:23.705Z,100388.46
2018-05-09T01:07:27.782Z,100390.13
2018-05-09T01:08:31.140Z,100388.53
2018-05-09T01:09:34.551Z,100390.09
2018-05-09T01:10:37.878Z,100389.86
2018-05-09T01:11:41.191Z,100390.50
2018-05-09T01:12:44.522Z,100396.08
2018-05-09T01:13:47.818Z,100383.83
2018-05-09T01:14:51.232Z,100388.89
2018-05-09T01:15:54.720Z,100390.33
2018-05-09T01:16:58.031Z,100388.88
2018-05-09T01:18:01.352Z,100392.20
2018-05-09T01:19:04.652Z,100387.92
2018-05-09T01:20:07.965Z,100386.66
2018-05-09T01:21:11.297Z,100382.83
2018-05-09T01:22:14.603Z,100388.31
2018-05-09T01:23:17.922Z,100378.25
2018-05-09T01:24:21.253Z,100382.58
2018-05-09T01:25:24.556Z,100383.08
2018-05-09T01:26:27.915Z,100381.44
2018-05-09T01:27:31.229Z,100385.25
2018-05-09T01:28:34.750Z,100385.75
2018-05-09T01:29:38.051Z,100382.86
2018-05-09T01:30:41.382Z,100384.80
2018-05-09T01:31:44.804Z,100384.09
2018-05-09T01:32:48.110Z,100382.92
2018-05-09T01:33:51.418Z,100385.71
2018-05-09T01:34:54.739Z,100386.34
2018-05-09T01:35:58.064Z,100394.09
2018-05-09T01:37:01.396Z,100382.98
2018-05-09T01:38:04.711Z,100385.39
2018-05-09T01:40:17.564Z,100385.33
2018-05-09T01:41:20.881Z,100380.54
2018-05-09T01:42:24.213Z,100374.82
2018-05-09T01:43:27.544Z,100381.17
2018-05-09T01:44:30.871Z,100377.22
2018-05-09T01:45:34.180Z,100376.05
2018-05-09T01:46:37.499Z,100378.33
2018-05-09T01:47:40.822Z,100378.96
2018-05-09T01:48:44.125Z,100381.23
2018-05-09T01:49:47.443Z,100383.09
2018-05-09T01:50:50.751Z,100381.00
2018-05-09T01:51:54.077Z,100378.81
2018-05-09T01:52:57.414Z,100377.17
2018-05-09T01:54:00.729Z,100379.53
2018-05-09T01:55:04.122Z,100380.97
2018-05-09T01:56:07.437Z,100380.13
2018-05-09T01:57:10.728Z,100375.88
2018-05-09T01:58:14.057Z,100376.91
2018-05-09T01:59:17.380Z,100372.98
2018-05-09T02:00:20.689Z,100379.81
2018-05-09T02:01:24.184Z,100372.23
2018-05-09T02:02:27.598Z,100375.53
2018-05-09T02:03:30.933Z,100374.30
2018-05-09T02:04:34.248Z,100377.00
2018-05-09T02:05:37.643Z,100378.52
2018-05-09T02:06:40.955Z,100375.92
2018-05-09T02:07:44.274Z,100382.36
2018-05-09T02:08:47.658Z,100385.56
2018-05-09T02:09:50.974Z,100376.73
2018-05-09T02:10:54.281Z,100375.89
2018-05-09T02:11:57.594Z,100376.94
2018-05-09T02:13:00.975Z,100377.03
2018-05-09T02:14:04.300Z,100374.01
2018-05-09T02:15:07.613Z,100372.87
2018-05-09T02:16:10.917Z,100377.84
2018-05-09T02:17:14.493Z,100376.16
2018-05-09T02:18:17.815Z,100385.27
2018-05-09T02:19:21.147Z,100375.54
2018-05-09T02:20:24.472Z,100376.88
2018-05-09T02:21:27.774Z,100372.52
2018-05-09T02:22:31.149Z,100373.95
2018-05-09T02:23:34.462Z,100377.24
2018-05-09T02:24:37.789Z,100375.51
2018-05-09T02:25:41.099Z,100376.44
2018-05-09T02:26:44.411Z,100374.34
2018-05-09T02:27:47.724Z,100370.90
2018-05-09T02:28:51.026Z,100375.78
2018-05-09T02:29:54.379Z,100372.66
2018-05-09T02:30:57.689Z,100370.59
2018-05-09T02:32:01.012Z,100369.25
2018-05-09T02:33:04.313Z,100370.69
2018-05-09T02:34:07.630Z,100372.45
2018-05-09T02:35:10.959Z,100359.59
2018-05-09T02:36:14.264Z,100367.66
2018-05-09T02:37:17.571Z,100363.63
2018-05-09T02:38:20.898Z,100361.05
2018-05-09T02:39:24.356Z,100360.22
2018-05-09T02:40:27.691Z,100357.61
2018-05-09T02:41:31.100Z,100361.66
2018-05-09T02:42:34.327Z,100360.91
2018-05-09T02:43:37.669Z,100361.83
2018-05-09T02:44:40.951Z,100362.37
2018-05-09T02:45:44.367Z,100362.76
2018-05-09T02:46:47.700Z,100364.73
2018-05-09T02:47:51.007Z,100368.02
2018-05-09T02:48:54.310Z,100367.61
2018-05-09T02:49:57.683Z,100361.38
2018-05-09T02:51:00.947Z,100361.38
2018-05-09T02:52:04.259Z,100358.30
2018-05-09T02:53:07.555Z,100362.43
2018-05-09T02:54:10.884Z,100360.34
2018-05-09T02:55:14.204Z,100366.14
2018-05-09T02:56:17.526Z,100365.72
2018-05-09T02:57:20.868Z,100361.35
2018-05-09T02:58:24.287Z,100372.13
2018-05-09T02:59:27.607Z,100369.84
2018-05-09T03:00:30.931Z,100376.70
2018-05-09T03:01:35.862Z,100381.34
2018-05-09T03:02:39.172Z,100377.80
2018-05-09T03:03:42.494Z,100372.84
2018-05-09T03:04:45.810Z,100373.77
2018-05-09T03:05:49.112Z,100372.00
2018-05-09T03:06:52.447Z,100378.73
2018-05-09T03:07:55.763Z,100372.63
2018-05-09T03:08:59.082Z,100378.52
2018-05-09T03:10:02.398Z,100379.87
2018-05-09T03:11:05.715Z,100378.61
2018-05-09T03:12:09.036Z,100376.84
2018-05-09T03:13:12.342Z,100383.25
2018-05-09T03:14:15.663Z,100382.83
2018-05-09T03:15:19.071Z,100385.13
2018-05-09T03:16:22.398Z,100384.80
2018-05-09T03:17:25.722Z,100387.50
2018-05-09T03:18:29.043Z,100382.28
2018-05-09T03:19:32.371Z,100387.80
2018-05-09T03:20:35.682Z,100390.99
2018-05-09T03:21:39.028Z,100395.12
2018-05-09T03:22:42.355Z,100383.18
2018-05-09T03:23:45.667Z,100382.77
2018-05-09T03:24:48.993Z,100388.36
2018-05-09T03:25:52.311Z,100387.42
2018-05-09T03:26:55.607Z,100389.37
2018-05-09T03:27:58.939Z,100389.87
2018-05-09T03:29:02.251Z,100390.92
2018-05-09T03:30:05.744Z,100388.83
2018-05-09T03:31:09.054Z,100392.45
2018-05-09T03:32:12.359Z,100391.19
2018-05-09T03:33:15.706Z,100391.81
2018-05-09T03:34:19.025Z,100391.91
2018-05-09T03:35:22.323Z,100391.57
2018-05-09T03:36:25.710Z,100394.77
2018-05-09T03:37:29.044Z,100385.47
2018-05-09T03:38:32.434Z,100388.67
2018-05-09T03:39:35.774Z,100391.53
2018-05-09T03:40:39.093Z,100383.04
2018-05-09T03:41:42.410Z,100385.31
2018-05-09T03:42:45.747Z,100379.63
2018-05-09T03:43:49.074Z,100383.25
2018-05-09T03:44:52.396Z,100384.68
2018-05-09T03:45:55.720Z,100385.16
2018-05-09T03:46:59.043Z,100382.97
2018-05-09T03:48:02.350Z,100387.94
2018-05-09T03:49:05.679Z,100389.82
2018-05-09T03:50:08.975Z,100392.59
2018-05-09T03:51:12.291Z,100393.53
2018-05-09T03:52:15.586Z,100391.84
2018-05-09T03:53:18.913Z,100394.13
2018-05-09T03:54:22.234Z,100393.41
2018-05-09T03:55:25.547Z,100397.11
2018-05-09T03:56:28.981Z,100399.47
2018-05-09T03:57:32.382Z,100396.36
2018-05-09T03:58:35.709Z,100401.32
2018-05-09T03:59:39.024Z,100402.78
2018-05-09T04:00:42.327Z,100402.78
2018-05-09T04:01:58.427Z,100406.91
2018-05-09T04:03:13.376Z,100401.58
2018-05-09T04:04:28.656Z,100408.09
2018-05-09T04:05:43.743Z,100407.00
2018-05-09T04:06:58.799Z,100405.45
2018-05-09T04:08:13.834Z,100403.86
2018-05-09T04:09:28.954Z,100404.06
2018-05-09T04:10:32.227Z,100402.38
2018-05-09T04:11:35.591Z,100400.45
2018-05-09T04:12:38.909Z,100404.70
2018-05-09T04:13:42.211Z,100401.92
2018-05-09T04:14:45.590Z,100404.52
2018-05-09T04:15:48.824Z,100394.17
2018-05-09T04:16:52.146Z,100404.85
2018-05-09T04:17:55.446Z,100407.00
2018-05-09T04:18:58.773Z,100397.50
2018-05-09T04:20:02.090Z,100400.61
2018-05-09T04:21:05.415Z,100395.98
2018-05-09T04:22:08.873Z,100403.13
2018-05-09T04:23:12.254Z,100407.05
2018-05-09T04:24:15.507Z,100399.30
2018-05-09T04:25:18.817Z,100406.03
2018-05-09T04:26:22.127Z,100409.05
2018-05-09T04:27:25.460Z,100401.82
2018-05-09T04:28:28.779Z,100400.77
2018-05-09T04:29:32.102Z,100403.37
2018-05-09T04:30:35.414Z,100403.29
2018-05-09T04:31:38.743Z,100403.20
2018-05-09T04:32:42.084Z,100403.09
2018-05-09T04:33:45.471Z,100406.61
2018-05-09T04:34:48.784Z,100401.98
2018-05-09T04:35:52.103Z,100405.39
2018-05-09T04:36:55.423Z,100407.08
2018-05-09T04:37:58.777Z,100409.17
2018-05-09T04:39:02.103Z,100405.55
2018-05-09T04:40:05.451Z,100402.23
2018-05-09T04:41:08.771Z,100401.67
2018-05-09T04:42:12.121Z,100403.34
2018-05-09T04:43:15.475Z,100402.81
2018-05-09T04:44:18.789Z,100405.33
2018-05-09T04:45:22.141Z,100407.93
2018-05-09T04:46:25.458Z,100406.50
2018-05-09T04:47:29.034Z,100406.80
2018-05-09T04:48:32.350Z,100405.78
2018-05-09T04:49:35.698Z,100413.66
2018-05-09T04:50:38.997Z,100409.11
2018-05-09T04:51:42.308Z,100414.82
2018-05-09T04:52:45.627Z,100409.27
2018-05-09T04:53:48.973Z,100414.44
2018-05-09T04:54:52.365Z,100411.15
2018-05-09T04:55:55.683Z,100420.36
2018-05-09T04:56:59.054Z,100416.57
2018-05-09T04:58:02.467Z,100418.64
2018-05-09T04:59:05.796Z,100420.73
2018-05-09T05:00:09.111Z,100419.72
2018-05-09T05:01:12.424Z,100421.78
2018-05-09T05:02:15.963Z,100424.72
2018-05-09T05:03:19.288Z,100421.91
2018-05-09T05:04:22.646Z,100421.73
2018-05-09T05:05:25.969Z,100422.78
2018-05-09T05:06:29.289Z,100419.91
2018-05-09T05:07:32.636Z,100428.62
2018-05-09T05:08:35.961Z,100421.80
2018-05-09T05:09:39.306Z,100427.00
2018-05-09T05:10:42.715Z,100422.76
2018-05-09T05:11:46.023Z,100424.86
2018-05-09T05:12:49.357Z,100422.88
2018-05-09T05:13:52.698Z,100425.39
2018-05-09T05:14:56.082Z,100423.84
2018-05-09T05:15:59.379Z,100427.20
2018-05-09T05:17:02.699Z,100426.14
2018-05-09T05:18:06.042Z,100427.23
2018-05-09T05:19:09.362Z,100427.34
2018-05-09T05:20:12.692Z,100431.59
2018-05-09T05:21:16.015Z,100431.62
2018-05-09T05:22:19.367Z,100432.11
2018-05-09T05:23:22.692Z,100433.16
2018-05-09T05:24:26.247Z,100429.55
2018-05-09T05:25:29.623Z,100434.89
2018-05-09T05:26:32.950Z,100434.45
2018-05-09T05:27:36.283Z,100434.02
2018-05-09T05:28:39.598Z,100435.77
2018-05-09T05:29:42.928Z,100431.89
2018-05-09T05:30:46.269Z,100437.80
2018-05-09T05:31:49.607Z,100439.29
2018-05-09T05:32:52.917Z,100439.05
2018-05-09T05:33:56.404Z,100436.55
2018-05-09T05:34:59.720Z,100439.00
2018-05-09T05:36:03.059Z,100440.89
2018-05-09T05:37:06.375Z,100437.83
2018-05-09T05:38:09.701Z,100437.08
2018-05-09T05:39:13.032Z,100435.19
2018-05-09T05:40:16.428Z,100435.73
2018-05-09T05:41:19.762Z,100432.90
2018-05-09T05:42:23.167Z,100434.54
2018-05-09T05:43:26.615Z,100437.31
2018-05-09T05:44:29.946Z,100437.08
2018-05-09T05:45:33.307Z,100435.56
2018-05-09T05:46:36.706Z,100438.20
2018-05-09T05:47:40.033Z,100436.06
2018-05-09T05:48:43.322Z,100433.47
2018-05-09T05:49:46.703Z,100439.84
2018-05-09T05:50:50.112Z,100434.30
2018-05-09T05:51:53.429Z,100439.03
2018-05-09T05:52:56.787Z,100429.27
2018-05-09T05:54:00.115Z,100431.99
2018-05-09T05:55:03.426Z,100431.56
2018-05-09T05:56:06.830Z,100439.27
2018-05-09T05:57:10.144Z,100439.15
2018-05-09T05:58:13.484Z,100437.55
2018-05-09T05:59:16.827Z,100435.46
2018-05-09T06:00:20.136Z,100436.88
2018-05-09T06:01:23.543Z,100435.38
2018-05-09T06:02:27.858Z,100437.02
2018-05-09T06:03:31.193Z,100441.36
2018-05-09T06:04:34.573Z,100438.13
2018-05-09T06:05:37.999Z,100432.20
2018-05-09T06:06:41.342Z,100431.62
2018-05-09T06:07:44.679Z,100435.56
2018-05-09T06:08:47.998Z,100440.64
2018-05-09T06:09:51.333Z,100431.20
2018-05-09T06:10:54.691Z,100433.58
2018-05-09T06:11:58.088Z,100437.89
2018-05-09T06:13:01.426Z,100436.31
2018-05-09T06:14:04.761Z,100439.09
2018-05-09T06:15:08.067Z,100444.07
2018-05-09T06:16:11.423Z,100433.19
2018-05-09T06:17:14.779Z,100437.02
2018-05-09T06:18:18.082Z,100440.47
2018-05-09T06:19:21.420Z,100442.94
2018-05-09T06:20:24.802Z,100447.63
2018-05-09T06:21:28.120Z,100439.14
2018-05-09T06:22:31.470Z,100443.65
2018-05-09T06:23:34.803Z,100448.68
2018-05-09T06:24:38.111Z,100445.12
2018-05-09T06:25:41.447Z,100445.77
2018-05-09T06:26:44.756Z,100447.39
2018-05-09T06:27:48.106Z,100446.13
2018-05-09T06:28:51.779Z,100448.55
2018-05-09T06:29:55.100Z,100444.38
2018-05-09T06:30:58.558Z,100441.33
2018-05-09T06:32:01.846Z,100446.37
2018-05-09T06:33:05.156Z,100440.06
2018-05-09T06:34:09.472Z,100441.53
2018-05-09T06:35:12.761Z,100436.38
2018-05-09T06:36:16.149Z,100436.74
2018-05-09T06:37:19.671Z,100434.87
2018-05-09T06:38:23.021Z,100436.96
2018-05-09T06:39:26.489Z,100441.92
2018-05-09T06:40:29.835Z,100434.95
2018-05-09T06:41:33.172Z,100438.31
2018-05-09T06:42:36.508Z,100439.41
2018-05-09T06:43:39.853Z,100446.72
2018-05-09T06:44:43.521Z,100440.58
2018-05-09T06:45:46.875Z,100444.58
2018-05-09T06:46:50.191Z,100444.17
2018-05-09T06:47:53.490Z,100445.84
2018-05-09T06:48:56.861Z,100444.48
2018-05-09T06:50:00.267Z,100442.88
2018-05-09T06:51:03.544Z,100446.50
2018-05-09T06:52:06.975Z,100443.68
2018-05-09T06:53:10.350Z,100440.06
2018-05-09T06:54:13.649Z,100443.80
2018-05-09T06:55:17.003Z,100449.99
2018-05-09T06:56:20.323Z,100453.28
2018-05-09T06:57:23.655Z,100453.73
2018-05-09T06:58:26.979Z,100455.11
2018-05-09T06:59:30.339Z,100460.02
2018-05-09T07:00:33.834Z,100457.77
2018-05-09T07:01:37.142Z,100459.56
2018-05-09T07:02:40.656Z,100457.64
2018-05-09T07:03:43.997Z,100452.62
2018-05-09T07:04:47.327Z,100455.65
2018-05-09T07:05:50.687Z,100462.59
2018-05-09T07:06:54.113Z,100458.21
2018-05-09T07:07:57.423Z,100461.31
2018-05-09T07:09:01.173Z,100460.62
2018-05-09T07:10:04.489Z,100458.83
2018-05-09T07:11:07.880Z,100459.33
2018-05-09T07:12:11.211Z,100459.59
2018-05-09T07:13:14.531Z,100463.01
2018-05-09T07:14:17.899Z,100461.60
2018-05-09T07:15:21.203Z,100461.73
2018-05-09T07:16:24.557Z,100463.30
2018-05-09T07:17:27.858Z,100468.91
2018-05-09T07:18:31.169Z,100461.75
2018-05-09T07:19:34.541Z,100466.70
2018-05-09T07:20:37.844Z,100465.16
2018-05-09T07:21:41.179Z,100465.98
2018-05-09T07:22:44.498Z,100466.47
2018-05-09T07:23:47.808Z,100460.39
2018-05-09T07:24:51.107Z,100463.59
2018-05-09T07:25:54.413Z,100459.28
2018-05-09T07:26:57.775Z,100462.06
2018-05-09T07:28:01.084Z,100459.42
2018-05-09T07:29:04.391Z,100458.83
2018-05-09T07:30:07.815Z,100456.34
2018-05-09T07:31:11.145Z,100458.08
2018-05-09T07:32:14.483Z,100456.95
2018-05-09T07:33:17.826Z,100455.94
2018-05-09T07:34:21.215Z,100456.25
2018-05-09T07:35:24.562Z,100452.98
2018-05-09T07:36:27.768Z,100455.45
2018-05-09T07:37:31.101Z,100455.45
2018-05-09T07:38:34.421Z,100458.09
2018-05-09T07:39:37.731Z,100455.38
2018-05-09T07:40:41.064Z,100452.70
2018-05-09T07:41:44.395Z,100453.17
2018-05-09T07:42:47.711Z,100453.34
2018-05-09T07:43:51.048Z,100452.34
2018-05-09T07:44:54.345Z,100454.64
2018-05-09T07:45:57.656Z,100453.09
2018-05-09T07:47:01.151Z,100456.58
2018-05-09T07:48:04.699Z,100453.44
2018-05-09T07:49:08.103Z,100452.60
2018-05-09T07:50:11.462Z,100451.03
2018-05-09T07:51:14.782Z,100450.58
2018-05-09T07:52:18.106Z,100450.84
2018-05-09T07:53:21.458Z,100453.19
2018-05-09T07:54:24.768Z,100452.08
2018-05-09T07:55:28.115Z,100455.27
2018-05-09T07:56:31.609Z,100460.50
2018-05-09T07:57:34.940Z,100454.89
2018-05-09T07:58:38.315Z,100451.76
2018-05-09T07:59:41.634Z,100457.03
2018-05-09T08:00:44.939Z,100452.27
2018-05-09T08:01:48.267Z,100457.64
2018-05-09T08:02:53.117Z,100457.69
2018-05-09T08:03:56.449Z,100453.34
2018-05-09T08:05:00.544Z,100455.06
2018-05-09T08:06:03.881Z,100457.78
2018-05-09T08:07:07.423Z,100451.81
2018-05-09T08:08:10.828Z,100452.52
2018-05-09T08:09:14.096Z,100458.26
2018-05-09T08:10:17.471Z,100451.15
2018-05-09T08:11:20.842Z,100459.00
2018-05-09T08:12:24.162Z,100453.28
2018-05-09T08:13:29.165Z,100449.31
2018-05-09T08:14:32.569Z,100449.73
2018-05-09T08:15:35.874Z,100449.31
2018-05-09T08:16:39.231Z,100450.14
2018-05-09T08:17:42.543Z,100450.98
2018-05-09T08:18:45.851Z,100449.09
2018-05-09T08:19:49.448Z,100448.54
2018-05-09T08:20:52.765Z,100451.67
2018-05-09T08:21:56.095Z,100457.00
2018-05-09T08:22:59.410Z,100454.07
2018-05-09T08:24:02.768Z,100456.79
2018-05-09T08:25:09.041Z,100457.95
2018-05-09T08:26:14.282Z,100460.08
2018-05-09T08:27:19.392Z,100458.94
2018-05-09T08:28:24.334Z,100461.23
2018-05-09T08:29:30.260Z,100456.22
2018-05-09T08:30:34.436Z,100458.30
2018-05-09T08:31:45.408Z,100455.48
2018-05-09T08:32:50.529Z,100453.87
2018-05-09T08:33:56.427Z,100457.20
2018-05-09T08:34:59.781Z,100449.75
2018-05-09T08:36:03.158Z,100458.21
2018-05-09T08:37:06.474Z,100454.55
2018-05-09T08:38:09.794Z,100454.03
2018-05-09T08:39:13.082Z,100457.69
2018-05-09T08:40:16.387Z,100456.86
2018-05-09T08:41:19.724Z,100449.81
2018-05-09T08:42:23.031Z,100454.03
2018-05-09T08:43:26.457Z,100461.98
2018-05-09T08:44:29.727Z,100457.73
2018-05-09T08:45:33.019Z,100454.92
2018-05-09T08:46:36.359Z,100458.19
2018-05-09T08:47:39.687Z,100455.58
2018-05-09T08:48:42.998Z,100457.16
2018-05-09T08:49:46.338Z,100454.58
2018-05-09T08:50:49.646Z,100458.77
2018-05-09T08:51:53.086Z,100451.23
2018-05-09T08:52:56.396Z,100449.05
2018-05-09T08:53:59.705Z,100450.13
2018-05-09T08:55:03.024Z,100448.98
2018-05-09T08:56:06.388Z,100448.81
2018-05-09T08:57:09.734Z,100443.48
2018-05-09T08:58:13.027Z,100451.22
2018-05-09T08:59:16.347Z,100443.91
2018-05-09T09:00:19.679Z,100446.09
2018-05-09T09:01:22.985Z,100441.35
2018-05-09T09:02:26.365Z,100446.99
2018-05-09T09:03:29.792Z,100443.19
2018-05-09T09:04:33.311Z,100441.03
2018-05-09T09:05:36.627Z,100440.89
2018-05-09T09:06:39.962Z,100442.67
2018-05-09T09:07:43.606Z,100442.56
2018-05-09T09:08:46.935Z,100444.75
2018-05-09T09:09:50.299Z,100440.16
2018-05-09T09:10:53.687Z,100438.80
2018-05-09T09:11:56.981Z,100441.52
2018-05-09T09:13:00.341Z,100441.52
2018-05-09T09:14:03.663Z,100436.08
2018-05-09T09:15:06.960Z,100443.15
2018-05-09T09:16:10.362Z,100438.80
2018-05-09T09:17:13.686Z,100438.59
2018-05-09T09:18:17.072Z,100437.65
2018-05-09T09:19:20.386Z,100437.23
2018-05-09T09:20:24.062Z,100433.67
2018-05-09T09:21:27.379Z,100435.03
2018-05-09T09:22:30.712Z,100434.93
2018-05-09T09:23:34.062Z,100437.23
2018-05-09T09:24:37.371Z,100432.41
2018-05-09T09:25:40.668Z,100435.94
2018-05-09T09:26:44.085Z,100432.16
2018-05-09T09:27:47.435Z,100431.75
2018-05-09T09:28:50.770Z,100427.98
2018-05-09T09:29:54.099Z,100432.78
2018-05-09T09:30:57.460Z,100430.23
2018-05-09T09:32:00.767Z,100428.11
2018-05-09T09:33:04.083Z,100428.72
2018-05-09T09:34:07.415Z,100424.81
2018-05-09T09:35:10.728Z,100423.23
2018-05-09T09:36:14.051Z,100422.47
2018-05-09T09:37:17.359Z,100417.34
2018-05-09T09:38:20.677Z,100421.17
2018-05-09T09:39:24.227Z,100418.75
2018-05-09T09:40:27.545Z,100418.95
2018-05-09T09:41:31.037Z,100414.62
2018-05-09T09:42:34.262Z,100412.64
2018-05-09T09:43:37.585Z,100415.63
2018-05-09T09:44:41.196Z,100415.00
2018-05-09T09:45:44.519Z,100409.03
2018-05-09T09:46:47.842Z,100406.73
2018-05-09T09:47:51.170Z,100405.64
2018-05-09T09:48:54.547Z,100404.59
2018-05-09T09:49:57.923Z,100404.59
2018-05-09T09:51:01.243Z,100404.66
2018-05-09T09:52:04.600Z,100397.75
2018-05-09T09:53:07.980Z,100399.41
2018-05-09T09:54:11.300Z,100394.25
2018-05-09T09:55:15.103Z,100394.14
2018-05-09T09:56:18.692Z,100389.84
2018-05-09T09:57:22.018Z,100388.06
2018-05-09T09:58:25.359Z,100388.76
2018-05-09T09:59:28.707Z,100391.38
2018-05-09T10:00:32.092Z,100386.34
2018-05-09T10:01:35.526Z,100383.52
2018-05-09T10:02:38.785Z,100379.60
2018-05-09T10:03:42.319Z,100393.55
2018-05-09T10:04:45.608Z,100379.42
2018-05-09T10:05:48.940Z,100381.36
2018-05-09T10:06:52.280Z,100377.42
2018-05-09T10:07:55.609Z,100373.20
2018-05-09T10:08:58.934Z,100375.39
2018-05-09T10:10:02.343Z,100378.84
2018-05-09T10:11:05.667Z,100370.95
2018-05-09T10:12:08.978Z,100368.02
2018-05-09T10:13:12.391Z,100367.79
2018-05-09T10:14:15.706Z,100361.68
2018-05-09T10:15:19.008Z,100366.06
2018-05-09T10:16:22.355Z,100361.32
2018-05-09T10:17:25.698Z,100362.04
2018-05-09T10:18:28.996Z,100359.10
2018-05-09T10:19:32.298Z,100360.73
2018-05-09T10:20:35.615Z,100357.91
2018-05-09T10:21:38.975Z,100354.96
2018-05-09T10:22:42.286Z,100358.38
2018-05-09T10:23:45.606Z,100359.52
2018-05-09T10:24:48.914Z,100359.52
2018-05-09T10:25:52.316Z,100354.34
2018-05-09T10:26:55.652Z,100351.63
2018-05-09T10:27:59.077Z,100355.18
2018-05-09T10:29:02.432Z,100356.02
2018-05-09T10:30:05.741Z,100354.65
2018-05-09T10:31:09.155Z,100355.07
2018-05-09T10:32:12.490Z,100350.34
2018-05-09T10:33:15.798Z,100349.82
2018-05-09T10:34:19.124Z,100348.73
2018-05-09T10:35:22.439Z,100347.27
2018-05-09T10:36:25.767Z,100345.80
2018-05-09T10:37:29.114Z,100349.77
2018-05-09T10:38:32.470Z,100340.52
2018-05-09T10:39:35.838Z,100336.32
2018-05-09T10:40:39.174Z,100344.48
2018-05-09T10:41:42.491Z,100339.04
2018-05-09T10:42:45.834Z,100338.92
2018-05-09T10:43:49.150Z,100337.04
2018-05-09T10:44:52.500Z,100335.95
2018-05-09T10:45:55.810Z,100330.51
2018-05-09T10:46:59.199Z,100331.34
2018-05-09T10:48:02.572Z,100333.01
2018-05-09T10:49:05.868Z,100328.25
2018-05-09T10:50:09.189Z,100327.88
2018-05-09T10:51:12.575Z,100324.59
2018-05-09T10:52:15.895Z,100321.45
2018-05-09T10:53:19.252Z,100322.81
2018-05-09T10:54:22.595Z,100321.45
2018-05-09T10:55:25.921Z,100319.29
2018-05-09T10:56:29.240Z,100322.43
2018-05-09T10:57:32.602Z,100327.45
2018-05-09T10:58:35.970Z,100324.73
2018-05-09T10:59:39.271Z,100327.45
2018-05-09T11:00:42.603Z,100321.18
2018-05-09T11:01:45.924Z,100321.41
2018-05-09T11:02:49.249Z,100317.05
2018-05-09T11:03:53.543Z,100321.52
2018-05-09T11:04:56.877Z,100317.05
2018-05-09T11:06:00.184Z,100322.49
2018-05-09T11:07:03.496Z,100317.73
2018-05-09T11:08:06.853Z,100321.18
2018-05-09T11:09:10.196Z,100316.98
2018-05-09T11:10:13.520Z,100310.04
2018-05-09T11:11:16.807Z,100318.09
2018-05-09T11:12:20.151Z,100317.98
2018-05-09T11:13:23.487Z,100320.03
2018-05-09T11:14:26.815Z,100311.48
2018-05-09T11:15:30.112Z,100309.14
2018-05-09T11:16:33.415Z,100306.42
2018-05-09T11:17:36.813Z,100313.00
2018-05-09T11:18:40.179Z,100310.59
2018-05-09T11:19:43.517Z,100308.97
2018-05-09T11:20:46.828Z,100303.83
2018-05-09T11:21:50.157Z,100300.47
2018-05-09T11:22:53.520Z,100305.23
2018-05-09T11:23:56.829Z,100304.59
2018-05-09T11:25:00.148Z,100298.63
2018-05-09T11:26:03.461Z,100302.56
2018-05-09T11:27:06.766Z,100300.27
2018-05-09T11:28:10.096Z,100291.98
2018-05-09T11:29:13.407Z,100299.36
2018-05-09T11:30:16.752Z,100291.61
2018-05-09T11:31:20.122Z,100291.08
2018-05-09T11:32:23.424Z,100292.64
2018-05-09T11:33:26.727Z,100286.10
2018-05-09T11:34:30.086Z,100290.91
2018-05-09T11:35:33.409Z,100288.07
2018-05-09T11:36:36.738Z,100287.39
2018-05-09T11:37:40.048Z,100288.27
2018-05-09T11:38:43.384Z,100283.66
2018-05-09T11:39:46.634Z,100288.58
2018-05-09T11:40:49.982Z,100291.11
2018-05-09T11:41:53.527Z,100290.16
2018-05-09T11:42:56.835Z,100290.58
2018-05-09T11:44:00.187Z,100281.16
2018-05-09T11:45:03.582Z,100278.86
2018-05-09T11:46:06.978Z,100277.61
2018-05-09T11:47:10.276Z,100275.98
2018-05-09T11:48:13.577Z,100277.77
2018-05-09T11:49:16.907Z,100270.84
2018-05-09T11:50:20.210Z,100275.23
2018-05-09T11:51:23.533Z,100277.84
2018-05-09T11:52:26.860Z,100277.84
2018-05-09T11:53:30.240Z,100277.95
2018-05-09T11:54:33.599Z,100273.20
2018-05-09T11:55:36.890Z,100274.56
2018-05-09T11:56:40.304Z,100270.89
2018-05-09T11:57:43.623Z,100270.48
2018-05-09T11:58:46.938Z,100272.14
2018-05-09T11:59:50.246Z,100281.14
2018-05-09T12:00:53.607Z,100267.83
2018-05-09T12:01:56.952Z,100267.16
2018-05-09T12:03:00.264Z,100265.15
2018-05-09T12:04:03.758Z,100265.45
2018-05-09T12:05:07.070Z,100262.58
2018-05-09T12:06:10.376Z,100270.94